Detall de PIREP

Printer-friendly versionPDF version

[2012/05/15 08:43:00]
Flight IATA:CT1005
Pilot Number:011
Company ICAO:CAT
Aircraft Type:F28/A
PAX:85
Departing Airport: EETU
Destination Airport: EVVA
Alternate Airport:EVRA
Online: VATSIM
Route:VALGA M990 ORVIX TENSI
Flight Level:F200
No Slew and time accel
No pause
Crash detect
Detect pilot in Cockpit between each 30 and 45 minutes
08:43 Zero fuel Weight: 59657 Lbs, Fuel Weight: 9142 Lbs
08:43 VATSIM:EETU 150750Z 09004KT 020V190 CAVOK 14/03 Q1020
08:43 VATSIM:EVVA 150820Z AUTO 14005KT 110V170 CAVOK 15/03 Q1017
08:51 Parking Brakes off
08:58 Take-off
08:58 Take off Weight: 68404 Lbs
08:58 Wind: 134º @ 008 Knots Heading: 091º
08:58 POS N58º 18´ 27´´ E026º 42´ 04´´
08:58 Gear Up: 153 Knots
08:58 Flaps:3 at 153 Knots
08:59 Flaps:2 at 175 Knots
08:59 Flaps:1 at 181 Knots
08:59 Flaps:0 at 188 Knots
09:08 TOC
09:08 Fuel Weight: 7305 Lb
09:22 TOD
09:22 Fuel Weight: 6044 Lb
09:33 Flaps:1 at 228 Knots
09:34 Flaps:2 at 220 Knots
09:35 Flaps:3 at 205 Knots
09:35 Flaps:4 at 193 Knots
09:35 Gear Down: 192 Knots
09:37 Flaps:5 at 158 Knots
09:44 TouchDown:Rate -328 ft/min Speed: 116 Knots
09:44 Flaps:0 at 39 Knots
09:44 VATSIM:EVVA 150920Z AUTO 12006KT 090V180 CAVOK 15/02 Q1017
09:44 Land
09:44 Wind:116º@006 Knots
09:44 Heading: 215º
09:44 Flight Duration: 00:46
09:44 Landing Weight: 64237 Lbs
09:44 POS N57º 21´ 12´´ E021º 32´ 17´´
09:47 Parking brakes on
09:47 Block to Block Duration: 00:56
09:47 Final Fuel: 4444 Lbls
09:47 Spent Fuel: 4697 Lbls
09:47 Flight Length: 02 NM
09:47 TOD Land Length: 00 NM

Exportar CSV

Powered by Drupal - Modified by Danger4k